Time;durP1;ratioP1;P1;durP2;ratioP2;P2;SDS_P1;SDS_P2;PMS_P1;PMS_P2;Temp;Humidity;BMP_temperature;BMP_pressure;BME280_temperature;BME280_humidity;BME280_pressure;Samples;Min_cycle;Max_cycle;Signal;HPM_P1;HPM_P2
2023/08/04 00:01:20;;;;;;;18.48;5.07;;;16.00;99.90;;;;;;4844241;29;20053;-58
2023/08/04 00:03:50;;;;;;;23.85;4.85;;;15.90;99.90;;;;;;4838794;29;20045;-58
2023/08/04 00:06:17;;;;;;;17.70;4.53;;;15.80;99.90;;;;;;4846965;29;20501;-59
2023/08/04 00:08:45;;;;;;;19.02;5.15;;;15.90;99.90;;;;;;4846169;29;20049;-59
2023/08/04 00:11:13;;;;;;;22.83;4.68;;;15.80;99.90;;;;;;4856259;29;20048;-59
2023/08/04 00:13:40;;;;;;;21.92;4.65;;;15.80;99.90;;;;;;4841694;29;20050;-60
2023/08/04 00:16:09;;;;;;;18.20;4.18;;;15.70;99.90;;;;;;4852205;29;20046;-58
2023/08/04 00:18:37;;;;;;;15.82;3.90;;;15.70;99.90;;;;;;4854925;29;20747;-59
2023/08/04 00:21:04;;;;;;;13.77;3.80;;;15.70;99.90;;;;;;4821484;29;20041;-58
2023/08/04 00:23:32;;;;;;;15.02;4.40;;;15.60;99.90;;;;;;4838221;29;20058;-58
2023/08/04 00:26:00;;;;;;;17.48;5.13;;;15.60;99.90;;;;;;4857173;29;20046;-58
2023/08/04 00:28:28;;;;;;;16.27;4.20;;;15.60;99.90;;;;;;4824332;29;20049;-58
2023/08/04 00:30:56;;;;;;;20.75;5.20;;;15.60;99.90;;;;;;4834361;29;20057;-59
2023/08/04 00:33:24;;;;;;;19.88;3.85;;;15.60;99.90;;;;;;4841301;29;20530;-59
2023/08/04 00:35:51;;;;;;;19.05;4.95;;;15.50;99.90;;;;;;4854619;29;20064;-59
2023/08/04 00:38:19;;;;;;;14.43;4.20;;;15.50;99.90;;;;;;4840068;29;20055;-58
2023/08/04 00:40:47;;;;;;;19.42;4.18;;;15.50;99.90;;;;;;4853850;29;20066;-59
2023/08/04 00:43:15;;;;;;;16.65;3.55;;;15.40;99.90;;;;;;4851165;29;20046;-58
2023/08/04 00:45:43;;;;;;;16.00;3.65;;;15.40;99.90;;;;;;4839559;29;20287;-58
2023/08/04 00:48:11;;;;;;;19.35;3.20;;;15.40;99.90;;;;;;4853390;29;20057;-59
2023/08/04 00:50:40;;;;;;;19.70;3.07;;;15.40;99.90;;;;;;4852942;29;20439;-59
2023/08/04 00:53:09;;;;;;;18.95;3.47;;;15.40;99.90;;;;;;4857249;29;20297;-60
2023/08/04 00:55:37;;;;;;;16.98;4.45;;;15.40;99.90;;;;;;4832535;29;20046;-59
2023/08/04 00:58:05;;;;;;;18.75;3.45;;;15.30;99.90;;;;;;4823545;29;20041;-58
2023/08/04 01:00:32;;;;;;;14.13;3.92;;;15.40;99.90;;;;;;4852528;29;20048;-59
2023/08/04 01:03:00;;;;;;;11.32;3.08;;;15.30;99.90;;;;;;4849274;29;20049;-58
2023/08/04 01:05:44;;;;;;;17.02;3.33;;;15.30;99.90;;;;;;4832062;29;20034;-59
2023/08/04 01:08:34;;;;;;;15.90;2.75;;;15.30;99.90;;;;;;4856001;29;20070;-58
2023/08/04 01:11:11;;;;;;;13.95;2.88;;;15.30;99.90;;;;;;4832247;29;20042;-59
2023/08/04 01:13:42;;;;;;;16.90;3.58;;;15.30;99.90;;;;;;4840584;29;20494;-58
2023/08/04 01:16:11;;;;;;;10.07;2.63;;;15.30;99.90;;;;;;4835256;29;20042;-59
2023/08/04 01:18:39;;;;;;;14.63;3.15;;;15.20;99.90;;;;;;4853665;29;20053;-59
2023/08/04 01:21:07;;;;;;;17.23;3.47;;;15.30;99.90;;;;;;4837333;29;20042;-59
2023/08/04 01:23:35;;;;;;;19.60;3.20;;;15.20;99.90;;;;;;4826336;29;20046;-58
2023/08/04 01:26:06;;;;;;;15.57;3.13;;;15.20;99.90;;;;;;4852178;29;20049;-59
2023/08/04 01:28:34;;;;;;;16.00;3.58;;;15.20;99.90;;;;;;4838571;29;20364;-58
2023/08/04 01:31:03;;;;;;;14.90;3.65;;;15.20;99.90;;;;;;4850348;29;20045;-59
2023/08/04 01:33:31;;;;;;;14.52;3.70;;;15.20;99.90;;;;;;4843491;29;20057;-59
2023/08/04 01:35:59;;;;;;;12.63;3.20;;;15.20;99.90;;;;;;4852908;29;20056;-58
2023/08/04 01:38:26;;;;;;;18.75;3.40;;;15.20;99.90;;;;;;4851564;29;20065;-59
2023/08/04 01:40:54;;;;;;;14.18;3.28;;;15.20;99.90;;;;;;4837636;29;20045;-59
2023/08/04 01:43:23;;;;;;;10.27;2.53;;;15.20;99.90;;;;;;4854838;29;20037;-60
2023/08/04 01:45:50;;;;;;;18.38;2.95;;;15.20;99.90;;;;;;4856583;29;20052;-58
2023/08/04 01:48:18;;;;;;;15.85;2.72;;;15.20;99.90;;;;;;4826104;29;20371;-59
2023/08/04 01:50:46;;;;;;;10.45;2.15;;;15.10;99.90;;;;;;4853899;29;20057;-59
2023/08/04 01:53:14;;;;;;;12.57;2.50;;;15.20;99.90;;;;;;4859521;29;20045;-62
2023/08/04 01:55:41;;;;;;;11.93;2.65;;;15.20;99.90;;;;;;4843223;29;20486;-58
2023/08/04 01:58:09;;;;;;;13.52;2.42;;;15.20;99.90;;;;;;4842674;29;20387;-58
2023/08/04 02:00:37;;;;;;;18.95;2.80;;;;;;;;;;4839846;29;20061;-58
2023/08/04 02:03:04;;;;;;;10.20;2.45;;;15.10;99.90;;;;;;4854384;29;20521;-59
2023/08/04 02:05:32;;;;;;;14.32;2.33;;;15.10;99.90;;;;;;4853525;29;20525;-59
2023/08/04 02:08:00;;;;;;;12.27;2.53;;;15.10;99.90;;;;;;4842874;29;20526;-59
2023/08/04 02:10:32;;;;;;;11.23;2.20;;;15.10;99.90;;;;;;4845869;29;20528;-59
2023/08/04 02:12:59;;;;;;;8.75;1.88;;;15.10;99.90;;;;;;4855322;29;20063;-58
2023/08/04 02:15:27;;;;;;;12.60;1.80;;;15.10;99.90;;;;;;4842361;29;20052;-58
2023/08/04 02:17:55;;;;;;;12.85;2.50;;;15.10;99.90;;;;;;4835032;29;20474;-59
2023/08/04 02:20:22;;;;;;;11.80;2.55;;;15.10;99.90;;;;;;4847421;29;20042;-59
2023/08/04 02:22:50;;;;;;;10.38;2.42;;;15.00;99.90;;;;;;4854954;29;20054;-59
2023/08/04 02:25:18;;;;;;;12.05;2.13;;;15.00;99.90;;;;;;4842689;29;20042;-59
2023/08/04 02:27:45;;;;;;;9.02;2.08;;;14.90;99.90;;;;;;4832713;29;20058;-59
2023/08/04 02:30:13;;;;;;;14.85;2.53;;;15.00;99.90;;;;;;4855621;29;20409;-59
2023/08/04 02:32:41;;;;;;;14.68;2.10;;;15.00;99.90;;;;;;4842757;29;20053;-58
2023/08/04 02:35:08;;;;;;;8.90;2.13;;;15.00;99.90;;;;;;4850285;29;20042;-58
2023/08/04 02:37:36;;;;;;;15.88;2.47;;;14.90;99.90;;;;;;4837676;29;20049;-58
2023/08/04 02:40:05;;;;;;;12.18;2.60;;;14.90;99.90;;;;;;4854189;29;20054;-58
2023/08/04 02:42:32;;;;;;;14.68;2.03;;;14.90;99.90;;;;;;4859057;29;20041;-59
2023/08/04 02:45:00;;;;;;;7.47;1.50;;;14.90;99.90;;;;;;4858927;29;20057;-59
2023/08/04 02:47:29;;;;;;;9.10;1.90;;;14.90;99.90;;;;;;4855433;29;20402;-58
2023/08/04 02:49:56;;;;;;;15.32;2.17;;;14.90;99.90;;;;;;4855160;29;20052;-59
2023/08/04 02:52:24;;;;;;;11.32;1.85;;;14.90;99.90;;;;;;4842597;29;20049;-59
2023/08/04 02:54:57;;;;;;;16.95;2.40;;;14.90;99.90;;;;;;4842631;29;20042;-59
2023/08/04 02:57:31;;;;;;;8.82;1.80;;;14.90;99.90;;;;;;4840052;29;20052;-59
2023/08/04 02:59:58;;;;;;;13.85;1.55;;;14.90;99.90;;;;;;4854527;29;20489;-60
2023/08/04 03:02:26;;;;;;;13.30;2.25;;;14.90;99.90;;;;;;4856995;29;20049;-60
2023/08/04 03:04:54;;;;;;;9.95;2.03;;;14.90;99.90;;;;;;4846371;29;20038;-59
2023/08/04 03:07:22;;;;;;;12.70;2.00;;;14.90;99.90;;;;;;4855625;29;20049;-59
2023/08/04 03:09:50;;;;;;;7.88;2.30;;;14.80;99.90;;;;;;4855668;29;20049;-59
2023/08/04 03:12:17;;;;;;;9.82;2.00;;;14.80;99.90;;;;;;4839836;29;20066;-59
2023/08/04 03:14:45;;;;;;;11.02;1.70;;;14.80;99.90;;;;;;4862490;29;20042;-59
2023/08/04 03:17:13;;;;;;;8.77;1.85;;;14.80;99.90;;;;;;4861871;29;20050;-60
2023/08/04 03:19:41;;;;;;;12.80;2.40;;;14.80;99.90;;;;;;4860653;29;20046;-59
2023/08/04 03:22:08;;;;;;;15.45;2.70;;;14.80;99.90;;;;;;4842939;29;20056;-59
2023/08/04 03:24:36;;;;;;;12.25;2.40;;;14.80;99.90;;;;;;4852750;29;20057;-60
2023/08/04 03:27:04;;;;;;;10.85;2.63;;;14.80;99.90;;;;;;4855602;29;20057;-60
2023/08/04 03:29:31;;;;;;;7.22;2.03;;;14.80;99.90;;;;;;4855494;29;20061;-59
2023/08/04 03:31:59;;;;;;;18.02;2.63;;;;;;;;;;4855805;29;20054;-59
2023/08/04 03:34:27;;;;;;;14.32;2.60;;;14.80;99.90;;;;;;4858040;29;20049;-59
2023/08/04 03:36:54;;;;;;;10.73;2.88;;;14.70;99.90;;;;;;4861274;29;20062;-59
2023/08/04 03:39:23;;;;;;;7.47;2.55;;;;;;;;;;4854969;29;20061;-58
2023/08/04 03:41:50;;;;;;;5.47;2.92;;;14.70;99.90;;;;;;4862169;29;20144;-59
2023/08/04 03:44:18;;;;;;;10.88;2.67;;;14.70;99.90;;;;;;4845069;29;20549;-58
2023/08/04 03:46:45;;;;;;;13.77;3.38;;;14.60;99.90;;;;;;4861862;29;20057;-58
2023/08/04 03:49:13;;;;;;;10.20;2.80;;;14.60;99.90;;;;;;4855465;29;20064;-59
2023/08/04 03:51:41;;;;;;;9.25;3.80;;;14.60;99.90;;;;;;4860832;29;20061;-59
2023/08/04 03:54:08;;;;;;;11.73;3.80;;;14.50;99.90;;;;;;4856469;29;20429;-59
2023/08/04 03:56:36;;;;;;;9.88;3.67;;;14.50;99.90;;;;;;4861416;29;20045;-59
2023/08/04 03:59:03;;;;;;;13.02;4.22;;;14.50;99.90;;;;;;4858026;29;20050;-59
2023/08/04 04:01:31;;;;;;;14.88;4.13;;;14.50;99.90;;;;;;4861410;29;20050;-59
2023/08/04 04:03:59;;;;;;;10.82;3.83;;;14.50;99.90;;;;;;4859186;29;20062;-59
2023/08/04 04:06:26;;;;;;;11.77;3.17;;;14.50;99.90;;;;;;4858058;29;20049;-58
2023/08/04 04:08:55;;;;;;;8.63;2.70;;;14.50;99.90;;;;;;4859518;29;20050;-59
2023/08/04 04:11:23;;;;;;;8.95;2.38;;;;;;;;;;4844878;29;20048;-59
2023/08/04 04:13:51;;;;;;;12.77;2.83;;;14.40;99.90;;;;;;4861322;29;20049;-58
2023/08/04 04:16:20;;;;;;;13.73;3.70;;;14.40;99.90;;;;;;4853714;29;20057;-59
2023/08/04 04:18:48;;;;;;;11.25;3.83;;;14.40;99.90;;;;;;4849254;29;20045;-59
2023/08/04 04:21:15;;;;;;;15.10;3.70;;;14.40;99.90;;;;;;4861187;29;20034;-59
2023/08/04 04:23:43;;;;;;;10.02;3.67;;;;;;;;;;4844276;29;20061;-59
2023/08/04 04:26:11;;;;;;;10.95;3.15;;;14.30;99.90;;;;;;4861397;29;20046;-59
2023/08/04 04:28:38;;;;;;;10.55;3.22;;;14.40;99.90;;;;;;4859422;29;20049;-59
2023/08/04 04:31:06;;;;;;;14.18;3.75;;;14.30;99.90;;;;;;4860883;29;20049;-58
2023/08/04 04:33:34;;;;;;;8.48;2.63;;;14.40;99.90;;;;;;4861188;29;20061;-58
2023/08/04 04:36:01;;;;;;;9.63;2.40;;;14.30;99.90;;;;;;4855649;29;20081;-59
2023/08/04 04:38:29;;;;;;;10.63;2.55;;;14.30;99.90;;;;;;4857338;29;20041;-59
2023/08/04 04:40:58;;;;;;;8.70;2.08;;;14.30;99.90;;;;;;4859816;29;20045;-59
2023/08/04 04:43:27;;;;;;;7.68;2.10;;;14.30;99.90;;;;;;4860779;29;20053;-59
2023/08/04 04:45:55;;;;;;;11.00;1.80;;;14.30;99.90;;;;;;4860791;29;20053;-59
2023/08/04 04:48:24;;;;;;;8.95;1.88;;;14.30;99.90;;;;;;4849778;29;21651;-58
2023/08/04 04:50:52;;;;;;;11.48;2.30;;;14.30;99.90;;;;;;4854763;29;20057;-58
2023/08/04 04:53:20;;;;;;;8.63;2.15;;;14.20;99.90;;;;;;4857326;29;20057;-58
2023/08/04 04:55:47;;;;;;;5.80;2.22;;;14.30;99.90;;;;;;4857525;29;20647;-58
2023/08/04 04:58:15;;;;;;;10.02;2.03;;;14.20;99.90;;;;;;4849658;29;20394;-59
2023/08/04 05:00:43;;;;;;;7.25;2.60;;;14.20;99.90;;;;;;4857421;29;20074;-58
2023/08/04 05:03:11;;;;;;;14.23;3.13;;;14.20;99.90;;;;;;4841973;29;20052;-58
2023/08/04 05:05:38;;;;;;;4.47;1.50;;;14.20;99.90;;;;;;4845563;29;20056;-59
2023/08/04 05:08:06;;;;;;;12.60;2.72;;;14.20;99.90;;;;;;4832326;29;20056;-59
2023/08/04 05:10:34;;;;;;;14.73;2.63;;;14.20;99.90;;;;;;4854144;29;20056;-59
2023/08/04 05:13:02;;;;;;;9.23;2.42;;;14.20;99.90;;;;;;4853029;29;20127;-58
2023/08/04 05:15:30;;;;;;;9.85;2.33;;;14.10;99.90;;;;;;4853828;29;20046;-57
2023/08/04 05:17:58;;;;;;;10.18;2.63;;;14.10;99.90;;;;;;4844518;29;20049;-57
2023/08/04 05:20:26;;;;;;;15.07;2.75;;;14.10;99.90;;;;;;4853229;29;20058;-57
2023/08/04 05:22:53;;;;;;;12.85;1.67;;;14.10;99.90;;;;;;4835933;29;20522;-57
2023/08/04 05:25:21;;;;;;;8.00;2.28;;;14.10;99.90;;;;;;4852188;29;20056;-57
2023/08/04 05:27:50;;;;;;;7.68;1.90;;;14.10;99.90;;;;;;4832977;29;20068;-57
2023/08/04 05:30:18;;;;;;;8.80;1.70;;;14.10;99.90;;;;;;4827612;29;20050;-57
2023/08/04 05:32:46;;;;;;;10.77;2.10;;;14.00;99.90;;;;;;4844528;29;20351;-58
2023/08/04 05:35:16;;;;;;;15.48;1.83;;;14.00;99.90;;;;;;4851943;29;20061;-57
2023/08/04 05:37:44;;;;;;;10.32;2.08;;;14.00;99.90;;;;;;4839628;29;20042;-57
2023/08/04 05:40:12;;;;;;;16.08;2.08;;;14.00;99.90;;;;;;4849546;29;20478;-57
2023/08/04 05:42:39;;;;;;;13.77;1.80;;;14.00;99.90;;;;;;4855973;29;20493;-57
2023/08/04 05:45:09;;;;;;;10.25;1.58;;;14.00;99.90;;;;;;4856813;29;20057;-57
2023/08/04 05:47:37;;;;;;;6.10;1.70;;;14.00;99.90;;;;;;4850611;29;20058;-57
2023/08/04 05:50:05;;;;;;;11.48;1.42;;;14.00;99.90;;;;;;4856267;29;20506;-58
2023/08/04 05:52:33;;;;;;;7.03;1.40;;;14.00;99.90;;;;;;4855249;29;20050;-57
2023/08/04 05:55:01;;;;;;;11.73;1.70;;;14.00;99.90;;;;;;4856357;29;20057;-57
2023/08/04 05:57:28;;;;;;;12.90;1.92;;;14.00;99.90;;;;;;4855965;29;20064;-58
2023/08/04 05:59:56;;;;;;;7.60;2.17;;;14.00;99.90;;;;;;4851122;29;20053;-57
2023/08/04 06:02:24;;;;;;;7.70;1.20;;;13.90;99.90;;;;;;4849632;29;20046;-59
2023/08/04 06:04:52;;;;;;;10.27;1.92;;;14.00;99.90;;;;;;4853939;29;20052;-58
2023/08/04 06:07:20;;;;;;;5.88;1.55;;;14.00;99.90;;;;;;4855748;29;20448;-57
2023/08/04 06:09:47;;;;;;;7.60;1.48;;;14.00;99.90;;;;;;4851699;29;20053;-57
2023/08/04 06:12:15;;;;;;;8.73;1.35;;;14.00;99.90;;;;;;4855397;29;20508;-58
2023/08/04 06:14:46;;;;;;;12.18;2.65;;;14.00;99.90;;;;;;4835163;29;20057;-58
2023/08/04 06:17:13;;;;;;;7.25;1.95;;;14.00;99.90;;;;;;4852037;29;20512;-59
2023/08/04 06:19:43;;;;;;;13.00;2.00;;;14.10;99.90;;;;;;4834355;29;20513;-58
2023/08/04 06:22:13;;;;;;;10.73;1.60;;;14.10;99.90;;;;;;4851886;29;20049;-59
2023/08/04 06:24:41;;;;;;;9.32;1.35;;;14.10;99.90;;;;;;4855813;29;20049;-58
2023/08/04 06:27:09;;;;;;;7.43;1.50;;;14.10;99.90;;;;;;4851846;29;20053;-59
2023/08/04 06:29:38;;;;;;;5.55;1.50;;;14.20;99.90;;;;;;4849846;29;20050;-59
2023/08/04 06:32:07;;;;;;;9.93;1.70;;;14.20;99.90;;;;;;4826390;29;20041;-58
2023/08/04 06:34:35;;;;;;;9.73;2.00;;;14.10;99.90;;;;;;4841247;29;20041;-59
2023/08/04 06:37:02;;;;;;;10.82;2.20;;;14.10;99.90;;;;;;4841497;29;20068;-58
2023/08/04 06:39:30;;;;;;;13.13;1.50;;;14.20;99.90;;;;;;4840988;29;20049;-58
2023/08/04 06:41:58;;;;;;;6.80;2.08;;;14.20;99.90;;;;;;4847140;29;20057;-59
2023/08/04 06:44:26;;;;;;;8.27;1.90;;;14.20;99.90;;;;;;4826074;29;20037;-59
2023/08/04 06:46:53;;;;;;;5.43;1.40;;;14.10;99.90;;;;;;4837126;29;20053;-58
2023/08/04 06:49:21;;;;;;;8.35;1.90;;;14.20;99.90;;;;;;4836686;29;20067;-58
2023/08/04 06:51:50;;;;;;;11.90;2.00;;;14.20;99.90;;;;;;4808251;29;20065;-58
2023/08/04 06:54:19;;;;;;;12.88;2.22;;;14.20;99.90;;;;;;4837421;29;20064;-58
2023/08/04 06:56:47;;;;;;;9.95;1.73;;;14.20;99.90;;;;;;4821587;29;20049;-58
2023/08/04 06:59:14;;;;;;;9.07;2.00;;;14.20;99.90;;;;;;4825139;29;20507;-58
2023/08/04 07:01:42;;;;;;;7.10;1.63;;;14.30;99.90;;;;;;4823102;29;20053;-58
2023/08/04 07:04:10;;;;;;;6.70;1.70;;;;;;;;;;4841140;29;20060;-58
2023/08/04 07:06:40;;;;;;;10.88;2.33;;;14.40;99.90;;;;;;4839696;29;20418;-58
2023/08/04 07:09:07;;;;;;;19.90;3.33;;;14.50;99.90;;;;;;4836006;29;20047;-58
2023/08/04 07:11:36;;;;;;;8.02;2.25;;;14.50;99.90;;;;;;4835449;29;20470;-58
2023/08/04 07:14:03;;;;;;;11.90;1.92;;;14.50;99.90;;;;;;4829115;29;20049;-60
2023/08/04 07:16:31;;;;;;;10.52;2.15;;;14.50;99.90;;;;;;4837142;29;20049;-58
2023/08/04 07:18:59;;;;;;;7.55;1.85;;;14.50;99.90;;;;;;4849473;29;20053;-58
2023/08/04 07:21:26;;;;;;;6.72;1.95;;;14.50;99.90;;;;;;4842332;29;20045;-58
2023/08/04 07:23:54;;;;;;;9.32;2.13;;;14.50;99.90;;;;;;4824158;29;20057;-57
2023/08/04 07:26:22;;;;;;;10.07;2.30;;;14.40;99.90;;;;;;4829222;29;20046;-57
2023/08/04 07:28:50;;;;;;;9.50;2.08;;;14.40;99.90;;;;;;4826561;29;20072;-57
2023/08/04 07:31:18;;;;;;;11.18;2.72;;;14.50;99.90;;;;;;4835263;29;20049;-57
2023/08/04 07:33:46;;;;;;;10.93;2.08;;;14.50;99.90;;;;;;4799197;29;20057;-57
2023/08/04 07:36:14;;;;;;;9.25;2.40;;;14.50;99.90;;;;;;4818290;29;20058;-57
2023/08/04 07:38:42;;;;;;;15.25;2.70;;;14.50;99.90;;;;;;4846398;29;20401;-57
2023/08/04 07:41:20;;;;;;;9.88;2.80;;;14.50;99.90;;;;;;4855172;29;20404;-57
2023/08/04 07:43:50;;;;;;;9.98;3.05;;;14.60;99.90;;;;;;4833296;29;20140;-57
2023/08/04 07:46:28;;;;;;;7.07;2.65;;;14.60;99.90;;;;;;4833969;29;20046;-57
2023/08/04 07:48:56;;;;;;;12.75;3.58;;;14.60;99.90;;;;;;4833277;29;20054;-57
2023/08/04 07:51:24;;;;;;;12.07;3.20;;;14.60;99.90;;;;;;4839826;29;20093;-57
2023/08/04 07:53:52;;;;;;;13.20;3.00;;;14.60;99.90;;;;;;4828244;29;20057;-57
2023/08/04 07:56:20;;;;;;;18.90;3.47;;;14.70;99.90;;;;;;4826794;29;20482;-57
2023/08/04 07:58:48;;;;;;;8.88;3.10;;;14.70;99.90;;;;;;4822456;29;20509;-57
2023/08/04 08:01:16;;;;;;;8.95;2.65;;;14.80;99.90;;;;;;4818497;29;20061;-57
2023/08/04 08:03:44;;;;;;;7.57;2.67;;;14.80;99.90;;;;;;4829412;29;20080;-57
2023/08/04 08:06:13;;;;;;;7.18;2.40;;;14.80;99.90;;;;;;4837455;29;20385;-57
2023/08/04 08:08:40;;;;;;;7.63;2.70;;;14.80;99.90;;;;;;4835031;29;20057;-57
2023/08/04 08:11:09;;;;;;;14.57;3.42;;;14.90;99.90;;;;;;4836139;29;20054;-57
2023/08/04 08:13:38;;;;;;;10.60;2.78;;;14.90;99.90;;;;;;4833312;29;20065;-57
2023/08/04 08:16:10;;;;;;;5.95;2.60;;;15.00;99.90;;;;;;4824491;29;20049;-58
2023/08/04 08:18:38;;;;;;;10.05;2.85;;;15.00;99.90;;;;;;4820075;29;20066;-58
2023/08/04 08:21:08;;;;;;;14.18;3.20;;;15.00;99.90;;;;;;4845460;29;20062;-57
2023/08/04 08:23:36;;;;;;;7.90;1.90;;;15.00;99.90;;;;;;4852626;29;20045;-58
2023/08/04 08:26:04;;;;;;;11.63;1.90;;;15.00;99.90;;;;;;4857710;29;20045;-57
2023/08/04 08:28:32;;;;;;;13.48;1.88;;;15.00;99.90;;;;;;4854395;29;20477;-57
2023/08/04 08:31:00;;;;;;;11.98;2.03;;;15.10;99.90;;;;;;4850213;29;20045;-58
2023/08/04 08:33:28;;;;;;;15.18;2.42;;;15.10;99.90;;;;;;4855540;29;20048;-57
2023/08/04 08:35:56;;;;;;;9.50;2.30;;;15.20;99.90;;;;;;4829647;29;20409;-57
2023/08/04 08:38:24;;;;;;;7.28;1.77;;;15.30;99.90;;;;;;4852801;29;20037;-57
2023/08/04 08:40:52;;;;;;;6.57;1.50;;;;;;;;;;4837413;29;20417;-58
2023/08/04 08:43:20;;;;;;;10.43;3.03;;;15.40;99.90;;;;;;4857188;29;20401;-58
2023/08/04 08:45:49;;;;;;;4.80;1.98;;;15.40;99.90;;;;;;4836474;29;20065;-58
2023/08/04 08:48:19;;;;;;;10.23;2.05;;;15.50;99.90;;;;;;4826100;29;20054;-57
2023/08/04 08:50:54;;;;;;;13.05;2.42;;;15.50;99.90;;;;;;4852452;29;20418;-58
2023/08/04 08:53:29;;;;;;;9.20;2.00;;;15.50;99.90;;;;;;4836863;29;20050;-58
2023/08/04 08:56:00;;;;;;;11.02;1.92;;;15.60;99.90;;;;;;4849080;29;20056;-58
2023/08/04 08:58:30;;;;;;;8.23;1.65;;;15.60;99.90;;;;;;4845129;29;20046;-59
2023/08/04 09:00:59;;;;;;;9.07;1.60;;;15.70;99.90;;;;;;4856986;29;20061;-58
2023/08/04 09:03:27;;;;;;;8.23;1.50;;;15.70;99.90;;;;;;4835179;29;20050;-57
2023/08/04 09:05:55;;;;;;;7.40;2.42;;;15.70;99.90;;;;;;4832840;29;20419;-57
2023/08/04 09:08:23;;;;;;;8.25;1.50;;;15.80;99.90;;;;;;4829599;29;20077;-58
2023/08/04 09:10:51;;;;;;;8.48;1.48;;;15.80;99.90;;;;;;4835483;29;20042;-58
2023/08/04 09:13:19;;;;;;;13.30;1.65;;;15.90;99.90;;;;;;4855489;29;20046;-58
2023/08/04 09:15:49;;;;;;;5.50;1.30;;;15.90;99.90;;;;;;4849822;29;20075;-57
2023/08/04 09:18:28;;;;;;;8.55;1.75;;;15.90;99.90;;;;;;4848570;29;20048;-58
2023/08/04 09:21:07;;;;;;;9.48;1.75;;;15.90;99.90;;;;;;4836167;29;20052;-60
2023/08/04 09:23:36;;;;;;;4.53;1.15;;;16.00;99.90;;;;;;4836664;29;20057;-59
2023/08/04 09:26:04;;;;;;;6.07;1.25;;;16.00;99.90;;;;;;4822830;29;20534;-57
2023/08/04 09:28:32;;;;;;;6.60;1.17;;;16.00;99.90;;;;;;4836617;29;20057;-58
2023/08/04 09:31:08;;;;;;;7.35;1.70;;;16.10;99.90;;;;;;4836426;29;20505;-58
2023/08/04 09:33:41;;;;;;;10.25;1.80;;;16.10;99.90;;;;;;4844351;29;20050;-58
2023/08/04 09:36:12;;;;;;;7.35;1.55;;;16.10;99.90;;;;;;4830758;29;20510;-58
2023/08/04 09:38:40;;;;;;;5.25;1.48;;;16.20;99.90;;;;;;4827492;29;20077;-58
2023/08/04 09:41:11;;;;;;;4.85;1.50;;;16.20;99.90;;;;;;4819088;29;20490;-58
2023/08/04 09:43:49;;;;;;;11.10;1.70;;;16.30;99.90;;;;;;4841728;29;20646;-58
2023/08/04 09:46:17;;;;;;;5.93;1.85;;;16.40;99.90;;;;;;4836365;29;20513;-58
2023/08/04 09:48:47;;;;;;;7.75;1.70;;;16.40;99.90;;;;;;4841086;29;20050;-59
2023/08/04 09:51:19;;;;;;;12.05;2.75;;;16.40;99.90;;;;;;4846629;29;20046;-59
2023/08/04 09:53:49;;;;;;;16.83;2.30;;;16.40;99.90;;;;;;4843937;29;20062;-58
2023/08/04 09:56:21;;;;;;;13.23;2.95;;;16.40;99.90;;;;;;4845058;29;20053;-57
2023/08/04 09:58:49;;;;;;;4.65;2.25;;;16.40;99.90;;;;;;4839153;29;20383;-58
2023/08/04 10:01:18;;;;;;;7.00;2.13;;;16.50;99.90;;;;;;4845885;29;20509;-58
2023/08/04 10:03:51;;;;;;;9.02;1.98;;;16.50;99.90;;;;;;4844471;29;20525;-58
2023/08/04 10:06:20;;;;;;;8.85;1.92;;;16.50;99.90;;;;;;4836256;29;20054;-59
2023/08/04 10:08:51;;;;;;;5.28;1.88;;;16.50;99.90;;;;;;4848695;29;20053;-58
2023/08/04 10:11:21;;;;;;;6.80;1.73;;;16.40;99.90;;;;;;4843571;29;20053;-59
2023/08/04 10:13:54;;;;;;;13.20;1.95;;;16.40;99.90;;;;;;4827500;29;20049;-59
2023/08/04 10:16:35;;;;;;;7.93;2.10;;;16.40;99.90;;;;;;4847044;29;20054;-59
2023/08/04 10:19:05;;;;;;;9.43;1.80;;;16.40;99.90;;;;;;4823613;29;20046;-58
2023/08/04 10:21:36;;;;;;;9.15;1.73;;;16.40;99.90;;;;;;4832321;29;20053;-59
2023/08/04 10:24:11;;;;;;;13.18;2.10;;;16.40;99.90;;;;;;4843027;29;20489;-58
2023/08/04 10:26:47;;;;;;;13.77;2.20;;;16.30;99.90;;;;;;4840774;29;20513;-58
2023/08/04 10:29:29;;;;;;;8.82;1.77;;;16.30;99.90;;;;;;4818804;29;20049;-58
2023/08/04 10:31:58;;;;;;;9.48;2.13;;;16.30;99.90;;;;;;4840046;29;20402;-58
2023/08/04 10:34:31;;;;;;;4.65;1.55;;;18.00;99.90;;;;;;4831643;29;20509;-58
2023/08/04 10:37:09;;;;;;;8.15;2.10;;;16.20;99.90;;;;;;4808630;29;20046;-59
2023/08/04 10:39:41;;;;;;;6.82;1.52;;;16.20;99.90;;;;;;4855383;29;20052;-58
2023/08/04 10:42:11;;;;;;;7.45;2.00;;;16.20;99.90;;;;;;4833632;29;20054;-58
2023/08/04 10:44:55;;;;;;;10.55;1.95;;;16.10;99.90;;;;;;4847181;29;20045;-58
2023/08/04 10:47:45;;;;;;;9.10;2.38;;;16.10;99.90;;;;;;4841935;29;20272;-59
2023/08/04 10:50:34;;;;;;;10.27;2.42;;;16.20;99.90;;;;;;4835344;29;20050;-59
2023/08/04 10:53:02;;;;;;;7.88;1.98;;;16.40;99.90;;;;;;4849084;29;20041;-59
2023/08/04 10:55:33;;;;;;;12.55;3.35;;;16.40;99.90;;;;;;4847317;29;20409;-58
2023/08/04 10:58:14;;;;;;;6.93;2.40;;;16.60;99.90;;;;;;4838711;29;20045;-59
2023/08/04 11:00:45;;;;;;;8.10;3.00;;;16.70;99.90;;;;;;4846773;29;20070;-59
2023/08/04 11:03:21;;;;;;;12.02;3.00;;;16.80;99.90;;;;;;4838155;29;20398;-59
2023/08/04 11:05:50;;;;;;;10.77;3.67;;;17.00;99.90;;;;;;4832747;29;20793;-59
2023/08/04 11:08:19;;;;;;;11.70;3.05;;;16.90;99.90;;;;;;4841812;29;20046;-58
2023/08/04 11:10:55;;;;;;;5.53;2.40;;;17.10;99.90;;;;;;4830313;29;20049;-58
2023/08/04 11:13:25;;;;;;;7.10;2.53;;;17.10;99.90;;;;;;4839200;29;20038;-59
2023/08/04 11:15:53;;;;;;;9.93;2.75;;;17.20;99.90;;;;;;4838337;29;20049;-59
2023/08/04 11:18:29;;;;;;;7.45;2.38;;;17.30;99.90;;;;;;4836448;29;20054;-58
2023/08/04 11:21:03;;;;;;;8.70;2.80;;;17.40;99.90;;;;;;4837688;29;20053;-58
2023/08/04 11:23:31;;;;;;;6.25;2.80;;;17.50;99.90;;;;;;4821784;29;20494;-59
2023/08/04 11:26:00;;;;;;;10.40;2.20;;;17.50;99.90;;;;;;4844882;29;20053;-58
2023/08/04 11:28:29;;;;;;;7.45;1.55;;;17.60;99.90;;;;;;4824597;29;20245;-58
2023/08/04 11:31:04;;;;;;;6.43;1.48;;;17.70;99.90;;;;;;4826337;29;20127;-59
2023/08/04 11:33:33;;;;;;;5.72;1.27;;;17.60;99.90;;;;;;4825325;29;20054;-59
2023/08/04 11:36:03;;;;;;;5.38;1.75;;;17.60;99.90;;;;;;4855722;29;20061;-58
2023/08/04 11:38:32;;;;;;;8.02;1.45;;;17.70;99.90;;;;;;4857805;29;20049;-58
2023/08/04 11:41:01;;;;;;;8.27;1.60;;;17.80;99.90;;;;;;4834623;29;20057;-60
2023/08/04 11:43:33;;;;;;;3.88;1.90;;;17.80;99.90;;;;;;4848429;29;20042;-59
2023/08/04 11:46:06;;;;;;;7.63;1.60;;;17.80;99.90;;;;;;4836350;29;20060;-58
2023/08/04 11:48:38;;;;;;;8.45;2.47;;;17.60;99.90;;;;;;4811003;29;20395;-59
2023/08/04 11:51:07;;;;;;;10.48;4.05;;;17.60;99.90;;;;;;4857232;29;20056;-58
2023/08/04 11:53:37;;;;;;;6.93;2.92;;;17.70;99.90;;;;;;4856750;29;20526;-58
2023/08/04 11:56:07;;;;;;;9.13;2.58;;;17.70;99.90;;;;;;4825124;29;20422;-58
2023/08/04 11:58:58;;;;;;;6.13;2.35;;;17.70;99.90;;;;;;4847950;29;20050;-59
2023/08/04 12:01:33;;;;;;;9.40;2.60;;;17.70;99.90;;;;;;4854795;29;20072;-59
2023/08/04 12:04:01;;;;;;;7.97;2.85;;;17.80;99.90;;;;;;4849995;29;20056;-59
2023/08/04 12:06:29;;;;;;;7.68;1.83;;;17.80;99.90;;;;;;4836552;29;20065;-59
2023/08/04 12:09:02;;;;;;;7.18;2.10;;;17.80;99.90;;;;;;4856405;29;20042;-58
2023/08/04 12:11:30;;;;;;;6.93;1.70;;;17.80;99.90;;;;;;4848885;29;20053;-59
2023/08/04 12:14:08;;;;;;;4.63;1.38;;;18.00;99.90;;;;;;4834415;29;20053;-59
2023/08/04 12:16:57;;;;;;;4.25;1.30;;;18.00;99.90;;;;;;4840049;29;20073;-58
2023/08/04 12:19:27;;;;;;;6.00;1.80;;;18.20;99.90;;;;;;4853644;29;20072;-59
2023/08/04 12:21:59;;;;;;;5.82;2.50;;;18.40;99.90;;;;;;4851363;29;20056;-59
2023/08/04 12:24:28;;;;;;;2.92;1.80;;;18.80;99.90;;;;;;4856892;29;20053;-59
2023/08/04 12:26:56;;;;;;;3.15;2.13;;;19.40;99.90;;;;;;4857943;29;20544;-60
2023/08/04 12:29:24;;;;;;;9.93;2.40;;;20.00;99.90;;;;;;4854027;29;20521;-59
2023/08/04 12:31:52;;;;;;;10.48;2.53;;;20.60;99.90;;;;;;4856043;29;20046;-59
2023/08/04 12:34:21;;;;;;;6.68;2.65;;;20.90;99.90;;;;;;4850470;29;20046;-59
2023/08/04 12:36:50;;;;;;;5.30;2.20;;;20.80;99.90;;;;;;4851256;29;20061;-58
2023/08/04 12:39:18;;;;;;;7.30;2.42;;;20.80;99.90;;;;;;4857320;29;20034;-58
2023/08/04 12:41:45;;;;;;;7.32;2.80;;;20.50;99.90;;;;;;4840725;29;20080;-58
2023/08/04 12:44:13;;;;;;;11.38;4.22;;;20.30;99.90;;;;;;4836750;29;20057;-58
2023/08/04 12:46:41;;;;;;;9.30;3.70;;;20.00;99.90;;;;;;4857660;29;20053;-58
2023/08/04 12:49:09;;;;;;;11.10;4.55;;;19.30;99.90;;;;;;4854448;29;20057;-58
2023/08/04 12:51:36;;;;;;;10.88;4.25;;;19.40;99.90;;;;;;4846059;29;20454;-58
2023/08/04 12:54:04;;;;;;;9.25;3.95;;;19.10;99.90;;;;;;4829616;29;20042;-58